Time;durP1;ratioP1;P1;durP2;ratioP2;P2;SDS_P1;SDS_P2;PMS_P1;PMS_P2;Temp;Humidity;BMP_temperature;BMP_pressure;BME280_temperature;BME280_humidity;BME280_pressure;Samples;Min_cycle;Max_cycle;Signal;HPM_P1;HPM_P2
2022/06/01 00:00:37;;;;;;;2.60;1.95;;;;;11.60;93965.00;;;;7390424;19;20599;-77
2022/06/01 00:03:11;;;;;;;3.88;2.17;;;;;11.50;93962.00;;;;7391599;19;20625;-74
2022/06/01 00:05:39;;;;;;;6.20;2.00;;;;;11.50;93954.00;;;;7392776;19;20484;-78
2022/06/01 00:08:07;;;;;;;2.70;2.00;;;;;11.80;93949.00;;;;7391056;19;20887;-77
2022/06/01 00:10:41;;;;;;;3.20;2.07;;;;;11.80;93949.00;;;;7391345;19;20602;-77
2022/06/01 00:13:10;;;;;;;1.90;1.70;;;;;11.70;93943.00;;;;7390993;19;20121;-77
2022/06/01 00:15:38;;;;;;;4.93;2.00;;;;;11.80;93943.00;;;;7389825;19;20519;-77
2022/06/01 00:18:12;;;;;;;3.03;1.80;;;;;11.80;93935.00;;;;7390626;19;20213;-76
2022/06/01 00:20:40;;;;;;;5.10;1.90;;;;;11.60;93937.00;;;;7392131;19;20165;-75
2022/06/01 00:23:08;;;;;;;2.05;1.70;;;;;11.40;93937.00;;;;7391505;19;20142;-76
2022/06/01 00:25:48;;;;;;;3.97;1.90;;;;;11.50;93949.00;;;;7390778;19;20619;-77
2022/06/01 00:28:16;;;;;;;2.10;1.90;;;;;11.30;93953.00;;;;7390008;19;20140;-76
2022/06/01 00:30:51;;;;;;;2.35;1.85;;;;;11.50;93946.00;;;;7390344;19;20596;-77
2022/06/01 00:33:19;;;;;;;4.23;1.97;;;;;11.50;93944.00;;;;7389669;19;20517;-77
2022/06/01 00:35:47;;;;;;;4.17;1.90;;;;;11.50;93955.00;;;;7390693;19;20603;-77
2022/06/01 00:38:21;;;;;;;1.83;1.70;;;;;11.20;93948.00;;;;7390315;19;20140;-77
2022/06/01 00:40:49;;;;;;;3.22;2.05;;;;;11.40;93949.00;;;;7389873;19;20765;-77
2022/06/01 00:43:20;;;;;;;5.00;1.80;;;;;11.50;93942.00;;;;7389853;19;20477;-75
2022/06/01 00:45:56;;;;;;;5.83;2.00;;;;;11.50;93939.00;;;;7390776;19;20124;-77
2022/06/01 00:48:28;;;;;;;2.30;1.90;;;;;11.30;93939.00;;;;7391173;19;20144;-77
2022/06/01 00:51:02;;;;;;;4.63;2.05;;;;;10.80;93938.00;;;;7399285;19;20158;-77
2022/06/01 00:53:34;;;;;;;6.43;2.20;;;;;10.70;93950.00;;;;7399903;19;20117;-75
2022/06/01 00:56:10;;;;;;;4.47;2.53;;;;;10.80;93955.00;;;;7392510;19;20144;-76
2022/06/01 00:58:49;;;;;;;4.20;2.00;;;;;10.70;93942.00;;;;7398577;19;20176;-76
2022/06/01 01:01:19;;;;;;;17.23;2.50;;;;;11.00;93949.00;;;;7397043;19;20147;-75
2022/06/01 01:03:57;;;;;;;3.80;2.03;;;;;11.00;93937.00;;;;7397364;19;20600;-77
2022/06/01 01:06:28;;;;;;;2.97;1.70;;;;;11.20;93947.00;;;;7397140;19;20152;-76
2022/06/01 01:09:04;;;;;;;3.30;2.10;;;;;11.20;93942.00;;;;7394389;19;20128;-76
2022/06/01 01:11:35;;;;;;;5.33;1.70;;;;;11.20;93937.00;;;;7396452;19;20160;-77
2022/06/01 01:14:11;;;;;;;3.17;1.90;;;;;10.90;93941.00;;;;7397688;19;20133;-78
2022/06/01 01:16:39;;;;;;;3.58;2.10;;;;;11.00;93937.00;;;;7396941;19;20530;-77
2022/06/01 01:19:32;;;;;;;2.05;1.85;;;;;11.10;93931.00;;;;7397290;19;20177;-76
2022/06/01 01:22:17;;;;;;;2.50;2.10;;;;;10.90;93934.00;;;;7393749;19;20168;-76
2022/06/01 01:25:38;;;;;;;5.40;2.00;;;;;10.90;93933.00;;;;7397794;19;20212;-76
2022/06/01 01:28:18;;;;;;;2.67;2.07;;;;;10.90;93934.00;;;;7394341;19;20484;-77
2022/06/01 01:30:51;;;;;;;6.50;1.95;;;;;10.80;93941.00;;;;7396143;19;20543;-76
2022/06/01 01:33:29;;;;;;;2.83;1.80;;;;;10.70;93934.00;;;;7397624;19;20482;-77
2022/06/01 01:36:01;;;;;;;2.40;1.70;;;;;10.70;93930.00;;;;7396730;19;20137;-77
2022/06/01 01:38:52;;;;;;;3.67;1.80;;;;;10.70;93934.00;;;;7396302;19;20140;-77
2022/06/01 01:41:28;;;;;;;2.72;1.85;;;;;10.70;93921.00;;;;7395920;19;20231;-77
2022/06/01 01:44:14;;;;;;;3.40;2.20;;;;;10.60;93924.00;;;;7397363;19;20489;-76
2022/06/01 01:46:47;;;;;;;3.27;1.93;;;;;10.50;93936.00;;;;7395909;19;20196;-76
2022/06/01 01:49:24;;;;;;;1.90;1.70;;;;;10.50;93931.00;;;;7395372;19;20131;-76
2022/06/01 01:51:54;;;;;;;2.43;1.70;;;;;10.50;93936.00;;;;7395415;19;20496;-77
2022/06/01 01:55:11;;;;;;;2.53;1.87;;;;;10.60;93931.00;;;;7397050;19;20152;-78
2022/06/01 01:57:57;;;;;;;3.07;1.93;;;;;10.60;93932.00;;;;7395595;19;20145;-78
2022/06/01 02:00:40;;;;;;;2.45;1.58;;;;;10.60;93932.00;;;;7394921;19;20157;-77
2022/06/01 02:03:32;;;;;;;2.13;1.70;;;;;10.60;93935.00;;;;7397544;19;20125;-75
2022/06/01 02:06:15;;;;;;;4.50;1.90;;;;;10.60;93936.00;;;;7397766;19;20129;-76
2022/06/01 02:08:56;;;;;;;4.20;1.77;;;;;10.50;93937.00;;;;7395206;19;20132;-77
2022/06/01 02:14:45;;;;;;;3.13;1.80;;;;;10.00;93926.00;;;;7396931;19;20128;-78
2022/06/01 02:17:27;;;;;;;3.00;1.93;;;;;9.90;93920.00;;;;7395149;19;20145;-79
2022/06/01 02:20:10;;;;;;;5.15;1.95;;;;;9.80;93929.00;;;;7394636;19;20145;-78
2022/06/01 02:22:44;;;;;;;3.27;1.83;;;;;9.90;93916.00;;;;7394097;19;20628;-77
2022/06/01 02:25:25;;;;;;;1.90;1.73;;;;;10.00;93923.00;;;;7395157;19;20600;-78
2022/06/01 02:28:00;;;;;;;2.70;2.17;;;;;10.20;93913.00;;;;7396001;19;20137;-77
2022/06/01 02:30:36;;;;;;;2.37;1.60;;;;;10.10;93920.00;;;;7393941;19;20464;-78
2022/06/01 02:33:17;;;;;;;2.20;1.70;;;;;9.90;93913.00;;;;7393480;19;20627;-78
2022/06/01 02:35:48;;;;;;;4.17;1.90;;;;;10.10;93920.00;;;;7395095;19;20139;-76
2022/06/01 02:38:29;;;;;;;2.17;1.80;;;;;9.80;93915.00;;;;7394540;19;20136;-77
2022/06/01 02:40:56;;;;;;;3.00;2.10;;;;;9.80;93907.00;;;;7394029;19;20120;-77
2022/06/01 02:43:31;;;;;;;2.07;1.70;;;;;9.90;93922.00;;;;7392783;19;20139;-77
2022/06/01 02:45:59;;;;;;;4.13;1.90;;;;;10.00;93919.00;;;;7393567;19;20161;-77
2022/06/01 02:48:26;;;;;;;4.70;2.03;;;;;10.00;93906.00;;;;7393694;19;20125;-76
2022/06/01 02:51:01;;;;;;;2.00;1.80;;;;;9.90;93919.00;;;;7394282;19;20120;-78
2022/06/01 02:53:28;;;;;;;1.90;1.77;;;;;9.80;93903.00;;;;7392907;19;20152;-77
2022/06/01 02:55:57;;;;;;;2.37;1.60;;;;;9.80;93914.00;;;;7394128;19;20520;-77
2022/06/01 02:58:31;;;;;;;3.53;1.50;;;;;9.70;93915.00;;;;7392141;19;20154;-78
2022/06/01 03:00:59;;;;;;;2.67;1.60;;;;;9.90;93925.00;;;;7391622;19;20627;-76
2022/06/01 03:03:27;;;;;;;2.80;1.50;;;;;9.90;93924.00;;;;7394941;19;20125;-77
2022/06/01 03:06:01;;;;;;;2.27;1.80;;;;;9.90;93919.00;;;;7392978;19;20145;-78
2022/06/01 03:08:29;;;;;;;3.53;1.83;;;;;9.90;93912.00;;;;7391911;19;20958;-78
2022/06/01 03:10:56;;;;;;;2.73;1.70;;;;;10.10;93927.00;;;;7393813;19;20143;-77
2022/06/01 03:13:30;;;;;;;4.23;1.63;;;;;10.10;93915.00;;;;7392790;19;20464;-76
2022/06/01 03:15:58;;;;;;;1.63;1.53;;;;;10.10;93930.00;;;;7393629;19;20135;-76
2022/06/01 03:18:26;;;;;;;3.93;1.67;;;;;10.00;93930.00;;;;7392191;19;20125;-77
2022/06/01 03:21:01;;;;;;;4.57;1.70;;;;;9.80;93913.00;;;;7394039;19;20587;-77
2022/06/01 03:23:29;;;;;;;3.23;1.50;;;;;10.00;93924.00;;;;7393270;19;20121;-77
2022/06/01 03:25:57;;;;;;;3.37;1.57;;;;;9.90;93916.00;;;;7390903;19;20165;-78
2022/06/01 03:28:38;;;;;;;2.63;1.67;;;;;10.00;93926.00;;;;7394248;19;20643;-79
2022/06/01 03:31:06;;;;;;;6.13;1.80;;;;;10.00;93919.00;;;;7392013;19;20200;-78
2022/06/01 03:33:40;;;;;;;7.43;1.57;;;;;10.10;93916.00;;;;7392811;19;20512;-76
2022/06/01 03:36:10;;;;;;;2.03;1.50;;;;;10.10;93929.00;;;;7392577;19;20144;-76
2022/06/01 03:38:38;;;;;;;2.87;1.67;;;;;10.10;93924.00;;;;7392376;19;20129;-77
2022/06/01 03:41:13;;;;;;;2.60;1.60;;;;;10.00;93923.00;;;;7391436;19;20116;-78
2022/06/01 03:46:35;;;;;;;2.30;2.10;;;;;10.40;93913.00;;;;7391819;19;20144;-76
2022/06/01 03:49:02;;;;;;;2.53;1.47;;;;;10.30;93914.00;;;;7392279;19;20161;-78
2022/06/01 03:51:30;;;;;;;4.23;1.50;;;;;10.50;93915.00;;;;7390889;19;20149;-77
2022/06/01 03:54:06;;;;;;;1.77;1.20;;;;;10.60;93920.00;;;;7391218;19;20168;-77
2022/06/01 03:56:36;;;;;;;1.60;1.40;;;;;10.70;93922.00;;;;7393380;19;20121;-77
2022/06/01 03:59:04;;;;;;;3.17;1.50;;;;;10.60;93919.00;;;;7392178;19;20136;-78
2022/06/01 04:01:38;;;;;;;2.07;1.40;;;;;10.50;93919.00;;;;7390555;19;20612;-77
2022/06/01 04:04:05;;;;;;;1.83;1.50;;;;;10.70;93915.00;;;;7393310;19;20208;-76
2022/06/01 04:06:33;;;;;;;2.90;1.40;;;;;10.90;93926.00;;;;7391265;19;20592;-77
2022/06/01 04:09:07;;;;;;;1.77;1.30;;;;;10.90;93923.00;;;;7385340;19;20129;-77
2022/06/01 04:11:34;;;;;;;3.15;1.52;;;;;11.10;93928.00;;;;7391105;19;20149;-77
2022/06/01 04:14:02;;;;;;;3.07;1.53;;;;;11.00;93915.00;;;;7391021;19;20150;-78
2022/06/01 04:16:36;;;;;;;2.23;1.60;;;;;10.70;93923.00;;;;7390487;19;20479;-77
2022/06/01 04:19:04;;;;;;;2.47;1.70;;;;;11.00;93920.00;;;;7392419;19;20132;-77
2022/06/01 04:21:37;;;;;;;2.05;1.33;;;;;11.10;93923.00;;;;7389195;19;20164;-77
2022/06/01 04:24:15;;;;;;;1.60;1.45;;;;;11.30;93922.00;;;;7390007;19;20140;-77
2022/06/01 04:26:49;;;;;;;1.83;1.42;;;;;11.30;93927.00;;;;7388592;19;20141;-77
2022/06/01 04:29:24;;;;;;;1.37;1.27;;;;;11.20;93930.00;;;;7391041;19;20148;-76
2022/06/01 04:32:09;;;;;;;1.50;1.40;;;;;11.20;93920.00;;;;7390434;19;20148;-77
2022/06/01 04:34:43;;;;;;;2.50;1.50;;;;;11.30;93929.00;;;;7390579;19;20144;-76
2022/06/01 04:37:10;;;;;;;1.50;1.40;;;;;11.30;93931.00;;;;7391294;19;20129;-77
2022/06/01 04:39:38;;;;;;;2.70;1.50;;;;;11.30;93920.00;;;;7390650;19;20632;-77
2022/06/01 04:42:12;;;;;;;4.05;1.60;;;;;11.90;93930.00;;;;7391815;19;20462;-76
2022/06/01 04:44:40;;;;;;;4.90;1.60;;;;;11.90;93925.00;;;;7389962;19;20145;-76
2022/06/01 04:47:15;;;;;;;2.17;1.48;;;;;12.20;93928.00;;;;7389904;19;20157;-76
2022/06/01 04:49:57;;;;;;;2.05;1.65;;;;;12.30;93931.00;;;;7391064;19;20579;-77
2022/06/01 04:52:24;;;;;;;1.60;1.48;;;;;12.40;93928.00;;;;7390379;19;20124;-78
2022/06/01 04:55:01;;;;;;;3.17;1.75;;;;;12.40;93924.00;;;;7389685;19;20503;-79
2022/06/01 04:57:28;;;;;;;2.95;1.65;;;;;12.70;93926.00;;;;7391783;19;20128;-78
2022/06/01 04:59:56;;;;;;;3.13;1.65;;;;;13.00;93931.00;;;;7390110;19;20201;-78
2022/06/01 05:02:30;;;;;;;3.90;1.60;;;;;13.10;93927.00;;;;7389059;19;20145;-79
2022/06/01 05:04:58;;;;;;;3.95;1.92;;;;;13.20;93920.00;;;;7390176;19;20728;-77
2022/06/01 05:07:26;;;;;;;1.63;1.33;;;;;13.50;93913.00;;;;7390252;19;20129;-76
2022/06/01 05:10:00;;;;;;;3.13;1.52;;;;;13.70;93913.00;;;;7386823;19;20145;-78
2022/06/01 05:12:28;;;;;;;3.88;1.77;;;;;13.70;93924.00;;;;7388343;19;20122;-77
2022/06/01 05:14:55;;;;;;;3.95;1.63;;;;;13.90;93915.00;;;;7390587;19;20712;-78
2022/06/01 05:17:31;;;;;;;1.90;1.30;;;;;13.90;93912.00;;;;7388782;19;20482;-79
2022/06/01 05:20:00;;;;;;;2.00;1.45;;;;;14.10;93915.00;;;;7388192;19;20145;-78
2022/06/01 05:22:28;;;;;;;2.00;1.70;;;;;14.40;93911.00;;;;7387329;19;20164;-79
2022/06/01 05:25:03;;;;;;;2.53;1.60;;;;;14.60;93912.00;;;;7389428;19;20484;-79
2022/06/01 05:27:37;;;;;;;2.20;1.70;;;;;14.90;93916.00;;;;7386465;19;20279;-79
2022/06/01 05:30:12;;;;;;;5.85;1.80;;;;;15.20;93914.00;;;;7387302;19;20203;-78
2022/06/01 05:32:40;;;;;;;1.58;1.48;;;;;15.40;93902.00;;;;7389485;19;20137;-78
2022/06/01 05:35:08;;;;;;;2.28;1.60;;;;;15.50;93920.00;;;;7391793;19;20486;-78
2022/06/01 05:37:42;;;;;;;3.78;1.60;;;;;15.30;93929.00;;;;7396083;19;20144;-78
2022/06/01 05:40:10;;;;;;;4.20;1.88;;;;;15.30;93910.00;;;;7396911;19;20129;-78
2022/06/01 05:42:37;;;;;;;1.63;1.52;;;;;15.60;93911.00;;;;7396682;19;20481;-78
2022/06/01 05:45:11;;;;;;;5.20;1.48;;;;;15.70;93905.00;;;;7395734;19;20144;-80
2022/06/01 05:47:39;;;;;;;1.67;1.58;;;;;15.80;93910.00;;;;7396315;19;20135;-78
2022/06/01 05:50:07;;;;;;;3.30;1.42;;;;;15.90;93916.00;;;;7394236;19;20129;-81
2022/06/01 05:52:41;;;;;;;2.25;1.60;;;;;16.20;93910.00;;;;7395274;19;20153;-80
2022/06/01 05:55:11;;;;;;;4.20;1.65;;;;;16.20;93910.00;;;;7395658;19;20606;-79
2022/06/01 05:57:39;;;;;;;2.13;1.50;;;;;16.30;93916.00;;;;7396246;19;20141;-77
2022/06/01 06:00:16;;;;;;;3.55;1.52;;;;;16.60;93916.00;;;;7396087;19;20121;-78
2022/06/01 06:02:45;;;;;;;2.05;1.52;;;;;16.50;93916.00;;;;7395238;19;20612;-78
2022/06/01 06:08:06;;;;;;;1.73;1.45;;;;;16.70;93920.00;;;;7397654;19;20141;-78
2022/06/01 06:10:34;;;;;;;3.42;1.60;;;;;16.80;93930.00;;;;7391970;19;20608;-80
2022/06/01 06:13:01;;;;;;;2.60;1.60;;;;;16.90;93932.00;;;;7396027;19;20140;-80
2022/06/01 06:15:35;;;;;;;1.70;1.40;;;;;17.00;93923.00;;;;7395602;19;20141;-80
2022/06/01 06:18:03;;;;;;;3.83;1.58;;;;;17.00;93927.00;;;;7395368;19;20184;-80
2022/06/01 06:20:31;;;;;;;1.65;1.42;;;;;17.00;93923.00;;;;7395089;19;20145;-76
2022/06/01 06:23:05;;;;;;;2.97;1.45;;;;;17.10;93915.00;;;;7395733;19;20136;-77
2022/06/01 06:25:51;;;;;;;2.63;1.60;;;;;17.70;93933.00;;;;7393756;19;20197;-77
2022/06/01 06:28:26;;;;;;;2.17;1.67;;;;;17.40;93929.00;;;;7393750;19;20552;-79
2022/06/01 06:30:54;;;;;;;1.65;1.45;;;;;17.60;93929.00;;;;7391430;19;20137;-77
2022/06/01 06:33:22;;;;;;;3.15;1.70;;;;;17.70;93931.00;;;;7394824;19;20164;-77
2022/06/01 06:36:06;;;;;;;2.60;1.60;;;;;17.70;93932.00;;;;7394003;19;20132;-77
2022/06/01 06:38:36;;;;;;;2.38;1.60;;;;;17.80;93926.00;;;;7395572;19;20128;-79
2022/06/01 06:41:13;;;;;;;2.10;1.50;;;;;17.90;93926.00;;;;7393712;19;20610;-79
2022/06/01 06:43:42;;;;;;;3.40;1.50;;;;;17.80;93935.00;;;;7394892;19;20620;-79
2022/06/01 06:46:15;;;;;;;1.88;1.40;;;;;18.00;93927.00;;;;7394422;19;20137;-80
2022/06/01 06:48:51;;;;;;;2.50;1.70;;;;;18.10;93928.00;;;;7393637;19;20136;-79
2022/06/01 06:51:20;;;;;;;2.03;1.50;;;;;18.30;93930.00;;;;7392615;19;20608;-80
2022/06/01 06:53:48;;;;;;;3.72;1.50;;;;;18.70;93925.00;;;;7394310;19;20630;-79
2022/06/01 06:56:22;;;;;;;4.75;1.60;;;;;19.30;93924.00;;;;7397250;19;20140;-79
2022/06/01 06:58:50;;;;;;;3.53;1.50;;;;;19.10;93922.00;;;;7394272;19;20503;-77
2022/06/01 07:01:18;;;;;;;2.83;1.30;;;;;19.10;93921.00;;;;7393592;19;20141;-79
2022/06/01 07:03:53;;;;;;;2.95;1.40;;;;;18.70;93923.00;;;;7394107;19;20136;-78
2022/06/01 07:06:25;;;;;;;2.90;1.45;;;;;18.80;93923.00;;;;7393078;19;20595;-80
2022/06/01 07:09:00;;;;;;;3.45;1.25;;;;;18.60;93915.00;;;;7394391;19;20596;-76
2022/06/01 07:11:30;;;;;;;1.83;1.33;;;;;18.40;93924.00;;;;7390108;19;20624;-78
2022/06/01 07:14:00;;;;;;;3.35;1.67;;;;;19.00;93925.00;;;;7392251;19;20137;-77
2022/06/01 07:16:35;;;;;;;4.88;1.70;;;;;18.70;93931.00;;;;7394036;19;20128;-77
2022/06/01 07:19:05;;;;;;;2.38;1.25;;;;;18.30;93930.00;;;;7393893;19;20613;-78
2022/06/01 07:21:36;;;;;;;2.75;1.30;;;;;18.60;93930.00;;;;7391827;19;20507;-78
2022/06/01 07:24:11;;;;;;;3.83;1.40;;;;;18.50;93927.00;;;;7392069;19;20738;-76
2022/06/01 07:26:47;;;;;;;3.67;1.48;;;;;18.70;93951.00;;;;7391951;19;20619;-78
2022/06/01 07:29:21;;;;;;;2.00;1.50;;;;;18.40;93935.00;;;;7393198;19;20216;-77
2022/06/01 07:31:50;;;;;;;2.92;1.40;;;;;18.70;93960.00;;;;7391487;19;20580;-77
2022/06/01 07:34:18;;;;;;;2.85;1.40;;;;;18.50;93931.00;;;;7392321;19;20197;-78
2022/06/01 07:43:05;;;;;;;1.77;1.30;;;;;18.50;93956.00;;;;7393036;19;20136;-76
2022/06/01 07:45:25;;;;;;;1.52;1.42;;;;;17.10;93954.00;;;;7393218;19;20133;-75
2022/06/01 07:47:59;;;;;;;1.90;1.30;;;;;17.00;93967.00;;;;7391293;19;20625;-76
2022/06/01 07:50:50;;;;;;;2.28;1.23;;;;;17.10;93956.00;;;;7391816;19;20140;-76
2022/06/01 07:53:30;;;;;;;2.60;1.30;;;;;17.50;93957.00;;;;7390650;19;20631;-77
2022/06/01 07:56:00;;;;;;;2.55;1.35;;;;;17.40;93958.00;;;;7392364;19;20611;-75
2022/06/01 07:58:37;;;;;;;1.90;1.33;;;;;16.90;93968.00;;;;7388873;19;20608;-76
2022/06/01 08:01:05;;;;;;;1.48;1.25;;;;;16.90;93953.00;;;;7385184;19;20774;-75
2022/06/01 08:03:32;;;;;;;2.88;1.45;;;;;17.10;93935.00;;;;7388695;19;20129;-76
2022/06/01 08:06:07;;;;;;;1.73;1.30;;;;;17.70;93940.00;;;;7387811;19;20200;-77
2022/06/01 08:08:35;;;;;;;5.05;1.42;;;;;18.10;93954.00;;;;7387652;19;20147;-77
2022/06/01 08:11:02;;;;;;;1.63;1.15;;;;;18.30;93914.00;;;;7382980;19;20151;-76
2022/06/01 08:13:36;;;;;;;2.10;1.10;;;;;18.90;93937.00;;;;7388171;19;20129;-79
2022/06/01 08:16:04;;;;;;;2.03;1.27;;;;;19.10;93939.00;;;;7386426;19;20605;-77
2022/06/01 08:18:32;;;;;;;2.25;1.30;;;;;19.10;93947.00;;;;7385407;19;20614;-75
2022/06/01 08:21:06;;;;;;;2.17;1.33;;;;;19.40;93946.00;;;;7387072;19;20136;-77
2022/06/01 08:23:34;;;;;;;2.00;1.30;;;;;19.70;93938.00;;;;7391412;19;20200;-75
2022/06/01 08:26:01;;;;;;;1.45;1.27;;;;;19.30;93938.00;;;;7389887;19;20132;-73
2022/06/01 08:28:41;;;;;;;1.58;1.15;;;;;19.50;93941.00;;;;7388898;19;20148;-78
2022/06/01 08:31:09;;;;;;;1.48;1.10;;;;;19.30;93938.00;;;;7390214;19;20137;-78
2022/06/01 08:33:43;;;;;;;9.75;1.40;;;;;19.30;93941.00;;;;7390845;19;20470;-75
2022/06/01 08:36:10;;;;;;;3.60;1.40;;;;;19.10;93965.00;;;;7389848;19;20145;-74
2022/06/01 08:38:38;;;;;;;4.13;1.50;;;;;19.30;93962.00;;;;7389580;19;20503;-75
2022/06/01 08:41:15;;;;;;;3.92;1.27;;;;;19.20;93971.00;;;;7392551;19;20129;-74
2022/06/01 08:43:46;;;;;;;1.77;1.30;;;;;19.40;93959.00;;;;7390878;19;20125;-74
2022/06/01 08:46:23;;;;;;;1.42;1.20;;;;;20.10;93961.00;;;;7390271;19;20623;-73
2022/06/01 08:48:55;;;;;;;2.95;1.20;;;;;20.30;93955.00;;;;7391698;19;20129;-75
2022/06/01 08:51:31;;;;;;;1.90;1.35;;;;;20.90;93965.00;;;;7389106;19;20176;-74
2022/06/01 08:54:01;;;;;;;3.55;1.33;;;;;20.30;93976.00;;;;7389411;19;20152;-74
2022/06/01 08:56:45;;;;;;;1.58;1.25;;;;;20.30;93974.00;;;;7389380;19;20178;-76
2022/06/01 08:59:58;;;;;;;1.60;1.10;;;;;19.90;93976.00;;;;7389755;19;20145;-74
2022/06/01 09:02:41;;;;;;;3.05;1.38;;;;;19.20;93996.00;;;;7388682;19;20145;-74
2022/06/01 09:05:40;;;;;;;1.88;1.20;;;;;18.80;93992.00;;;;7389488;19;20153;-74
2022/06/01 09:08:24;;;;;;;2.40;1.50;;;;;18.70;93990.00;;;;7390940;19;20647;-73
2022/06/01 09:11:07;;;;;;;2.92;1.30;;;;;19.20;93984.00;;;;7398265;19;20121;-75
2022/06/01 09:13:57;;;;;;;5.28;1.42;;;;;18.90;93991.00;;;;7394007;19;20148;-76
2022/06/01 09:16:44;;;;;;;1.40;1.20;;;;;18.60;93979.00;;;;7397430;19;20132;-74
2022/06/01 09:22:38;;;;;;;5.60;1.50;;;;;20.30;93960.00;;;;7395520;19;20129;-76
2022/06/01 09:25:12;;;;;;;1.70;1.15;;;;;20.50;93994.00;;;;7397687;19;20125;-76
2022/06/01 09:27:59;;;;;;;1.30;1.20;;;;;20.40;93983.00;;;;7394162;19;20210;-77
2022/06/01 09:30:33;;;;;;;4.78;1.48;;;;;20.70;93985.00;;;;7395166;19;20132;-75
2022/06/01 09:33:26;;;;;;;3.42;1.13;;;;;20.70;93992.00;;;;7397364;19;20144;-76
2022/06/01 09:36:09;;;;;;;2.47;1.13;;;;;20.70;93989.00;;;;7396840;19;20147;-75
2022/06/01 09:38:55;;;;;;;6.50;1.58;;;;;20.90;93998.00;;;;7396280;19;20180;-74
2022/06/01 09:41:40;;;;;;;2.35;1.45;;;;;20.50;94001.00;;;;7397187;19;20510;-74
2022/06/01 09:44:18;;;;;;;3.00;1.45;;;;;20.70;94017.00;;;;7397714;19;20145;-74
2022/06/01 09:46:50;;;;;;;1.52;1.30;;;;;20.10;93987.00;;;;7395530;19;20141;-76
2022/06/01 09:49:31;;;;;;;3.72;1.50;;;;;20.10;94020.00;;;;7396075;19;20136;-74
2022/06/01 09:52:49;;;;;;;2.97;1.10;;;;;19.70;93990.00;;;;7393874;19;20139;-76
2022/06/01 09:55:25;;;;;;;2.25;1.45;;;;;20.40;94001.00;;;;7395998;19;20618;-74
2022/06/01 09:58:08;;;;;;;2.17;1.33;;;;;20.90;93991.00;;;;7395535;19;20125;-74
2022/06/01 10:06:31;;;;;;;2.47;1.25;;;;;21.40;93999.00;;;;7398760;19;20607;-75
2022/06/01 10:09:02;;;;;;;4.18;1.58;;;;;21.50;94002.00;;;;7395822;19;20631;-74
2022/06/01 10:11:44;;;;;;;3.08;1.60;;;;;21.70;93994.00;;;;7393267;19;20821;-76
2022/06/01 10:14:27;;;;;;;1.63;1.30;;;;;21.30;93990.00;;;;7395532;19;20132;-75
2022/06/01 10:17:10;;;;;;;1.63;1.38;;;;;22.20;93989.00;;;;7395896;19;20634;-75
2022/06/01 10:19:47;;;;;;;3.90;1.50;;;;;22.20;93996.00;;;;7390765;19;20529;-74
2022/06/01 10:22:40;;;;;;;2.30;1.25;;;;;22.70;93991.00;;;;7391505;19;20180;-74
2022/06/01 10:25:17;;;;;;;4.78;1.30;;;;;22.00;93991.00;;;;7393200;19;20152;-72
2022/06/01 10:28:10;;;;;;;3.03;1.67;;;;;21.30;94006.00;;;;7390983;19;20612;-73
2022/06/01 10:31:03;;;;;;;1.77;1.48;;;;;20.70;93996.00;;;;7392327;19;20121;-76
2022/06/01 10:33:47;;;;;;;1.52;1.27;;;;;21.10;94003.00;;;;7395273;19;20124;-74
2022/06/01 10:36:26;;;;;;;3.78;1.40;;;;;20.50;93997.00;;;;7393648;19;20146;-75
2022/06/01 10:39:04;;;;;;;2.35;1.50;;;;;21.10;93993.00;;;;7394112;19;20132;-73
2022/06/01 10:42:00;;;;;;;1.48;1.15;;;;;21.90;93989.00;;;;7393565;19;20590;-72
2022/06/01 10:44:38;;;;;;;2.15;1.40;;;;;22.20;93983.00;;;;7394761;19;20129;-76
2022/06/01 10:47:29;;;;;;;1.73;1.35;;;;;22.20;93990.00;;;;7392748;19;20667;-72
2022/06/01 10:50:19;;;;;;;2.95;1.30;;;;;21.80;94010.00;;;;7392242;19;20136;-71
2022/06/01 10:53:01;;;;;;;2.92;1.30;;;;;21.60;93999.00;;;;7394431;19;20144;-72
2022/06/01 10:55:42;;;;;;;1.40;1.23;;;;;21.40;94014.00;;;;7388219;19;20152;-73
2022/06/01 10:58:19;;;;;;;4.05;1.30;;;;;20.70;94032.00;;;;7390881;19;20191;-75
2022/06/01 11:01:05;;;;;;;3.17;1.27;;;;;20.10;94030.00;;;;7392910;19;20133;-73
2022/06/01 11:03:58;;;;;;;7.15;1.50;;;;;20.10;94019.00;;;;7394864;19;20656;-72
2022/06/01 11:07:05;;;;;;;4.18;1.45;;;;;19.80;94019.00;;;;7392764;19;20145;-74
2022/06/01 11:09:58;;;;;;;1.50;1.20;;;;;20.10;94020.00;;;;7392652;19;20805;-73
2022/06/01 11:12:46;;;;;;;2.08;1.35;;;;;20.00;94013.00;;;;7391501;19;20120;-74
2022/06/01 11:15:25;;;;;;;1.40;1.30;;;;;19.50;94012.00;;;;7394099;19;20215;-75
2022/06/01 11:18:14;;;;;;;1.60;1.50;;;;;19.90;94014.00;;;;7393124;19;20143;-75
2022/06/01 11:21:10;;;;;;;4.32;1.40;;;;;20.20;94014.00;;;;7392304;19;20160;-75
2022/06/01 11:23:47;;;;;;;3.85;1.45;;;;;20.80;93992.00;;;;7392134;19;20128;-73
2022/06/01 11:26:51;;;;;;;2.70;1.60;;;;;21.90;94000.00;;;;7390033;19;20146;-74
2022/06/01 11:29:46;;;;;;;2.97;1.40;;;;;22.30;93994.00;;;;7394564;19;20652;-73
2022/06/01 11:32:34;;;;;;;1.77;1.27;;;;;23.30;93988.00;;;;7387807;19;20660;-73
2022/06/01 11:35:50;;;;;;;3.88;1.63;;;;;22.80;93992.00;;;;7391140;19;20472;-75
2022/06/01 11:38:35;;;;;;;1.98;1.65;;;;;21.10;94013.00;;;;7392558;19;20149;-75
2022/06/01 11:41:14;;;;;;;2.88;1.80;;;;;20.60;93989.00;;;;7393785;19;20128;-74
2022/06/01 11:43:55;;;;;;;3.38;1.55;;;;;21.90;94008.00;;;;7391218;19;20123;-75
2022/06/01 11:46:43;;;;;;;3.47;1.58;;;;;21.20;94012.00;;;;7391039;19;20461;-75
2022/06/01 11:49:30;;;;;;;4.95;1.52;;;;;21.10;93985.00;;;;7394728;19;20604;-75
2022/06/01 11:52:22;;;;;;;3.28;1.60;;;;;21.90;93972.00;;;;7391277;19;20147;-76
2022/06/01 11:55:39;;;;;;;3.95;1.52;;;;;21.00;93985.00;;;;7390637;19;20513;-72
2022/06/01 11:58:28;;;;;;;4.63;1.63;;;;;21.80;93995.00;;;;7389186;19;20621;-73
2022/06/01 12:01:11;;;;;;;4.00;1.90;;;;;21.20;93989.00;;;;7392730;19;20128;-74
2022/06/01 12:03:56;;;;;;;3.20;1.50;;;;;21.90;93999.00;;;;7393384;19;20219;-74
2022/06/01 12:07:01;;;;;;;6.40;2.30;;;;;21.20;94000.00;;;;7389604;19;20220;-73
2022/06/01 12:09:44;;;;;;;6.15;1.77;;;;;20.80;94006.00;;;;7391842;19;20159;-72
2022/06/01 12:12:24;;;;;;;1.95;1.70;;;;;20.40;93996.00;;;;7390164;19;20128;-71
2022/06/01 12:15:09;;;;;;;2.30;1.60;;;;;20.50;94006.00;;;;7390093;19;20137;-73
2022/06/01 12:17:37;;;;;;;4.00;1.83;;;;;20.30;94000.00;;;;7391516;19;20128;-75
2022/06/01 12:20:19;;;;;;;2.17;1.85;;;;;20.30;93997.00;;;;7390073;19;20130;-72
2022/06/01 12:28:57;;;;;;;3.38;1.80;;;;;20.10;93991.00;;;;7385676;19;20180;-74
2022/06/01 12:31:37;;;;;;;2.42;1.80;;;;;20.20;93983.00;;;;7384926;19;20128;-74
2022/06/01 12:34:18;;;;;;;3.78;1.77;;;;;20.30;93991.00;;;;7384235;19;20460;-73
2022/06/01 12:37:04;;;;;;;4.45;1.90;;;;;20.20;93997.00;;;;7383909;19;20128;-75
2022/06/01 12:39:40;;;;;;;4.55;1.92;;;;;19.80;94007.00;;;;7383997;19;20215;-74
2022/06/01 12:42:38;;;;;;;3.35;1.75;;;;;19.60;94002.00;;;;7383780;19;20145;-75
2022/06/01 12:45:16;;;;;;;2.42;1.50;;;;;19.70;94008.00;;;;7389786;19;20129;-75
2022/06/01 12:48:01;;;;;;;2.20;2.00;;;;;20.60;93981.00;;;;7393607;19;20133;-76
2022/06/01 12:50:32;;;;;;;3.83;1.90;;;;;21.80;93969.00;;;;7392512;19;20599;-75
2022/06/01 12:53:13;;;;;;;3.42;2.00;;;;;22.70;93968.00;;;;7391656;19;20129;-75
2022/06/01 12:55:42;;;;;;;4.97;1.98;;;;;22.80;93969.00;;;;7394297;19;20147;-75
2022/06/01 12:58:21;;;;;;;8.63;2.00;;;;;22.10;93952.00;;;;7393137;19;20136;-76
2022/06/01 13:00:54;;;;;;;10.88;3.15;;;;;22.20;93953.00;;;;7391411;19;20129;-74
2022/06/01 13:03:33;;;;;;;17.08;2.20;;;;;22.20;93988.00;;;;7393839;19;20121;-74
2022/06/01 13:06:09;;;;;;;3.90;1.67;;;;;22.00;93957.00;;;;7393032;19;20132;-72
2022/06/01 13:08:43;;;;;;;3.75;1.90;;;;;22.10;93961.00;;;;7392755;19;20135;-72
2022/06/01 13:11:22;;;;;;;4.28;1.83;;;;;22.30;93981.00;;;;7391984;19;20120;-73
2022/06/01 13:13:58;;;;;;;3.58;1.70;;;;;22.30;93972.00;;;;7390632;19;20152;-72
2022/06/01 13:16:37;;;;;;;3.08;1.70;;;;;22.20;93941.00;;;;7389312;19;20141;-75
2022/06/01 13:19:19;;;;;;;4.68;1.80;;;;;22.50;93968.00;;;;7390637;19;20140;-74
2022/06/01 13:22:14;;;;;;;2.70;2.00;;;;;22.30;93953.00;;;;7389112;19;20164;-74
2022/06/01 13:24:54;;;;;;;5.90;1.80;;;;;22.00;93957.00;;;;7389879;19;20133;-75
2022/06/01 13:27:32;;;;;;;2.20;2.00;;;;;21.60;93974.00;;;;7391846;19;20181;-75
2022/06/01 13:30:16;;;;;;;2.60;1.55;;;;;20.60;93976.00;;;;7397364;19;20494;-74
2022/06/01 13:32:50;;;;;;;1.65;1.50;;;;;20.50;93974.00;;;;7389427;19;20209;-73
2022/06/01 13:36:15;;;;;;;1.75;1.50;;;;;20.70;93953.00;;;;7391925;19;20121;-74